Date,TemperatureHighF,TemperatureAvgF,TemperatureLowF,DewpointHighF,DewpointAvgF,DewpointLowF,HumidityHigh,HumidityAvg,HumidityLow,PressureMaxIn,PressureMinIn,WindSpeedMaxMPH,WindSpeedAvgMPH,GustSpeedMaxMPH,PrecipitationSumIn
2013-1-1,58,54,45,26,23,16,33,30,25,29.79,29.63,10,2,10,0.04
2013-1-2,55,50,36,28,22,11,36,33,30,30.24,29.63,10,3,10,0.12
2013-1-3,43,40,31,16,13,6,34,33,30,30.30,30.16,8,2,8,0.08
2013-1-4,53,37,27,13,7,3,35,29,16,30.36,30.22,11,1,11,0.01
2013-1-5,54,37,25,12,6,1,35,28,15,30.43,30.31,9,1,9,0.00
2013-1-6,48,45,37,20,17,11,35,33,30,30.33,30.10,5,1,5,0.00
2013-1-7,57,44,33,20,12,8,36,28,16,30.47,30.17,14,2,14,0.02
2013-1-8,66,45,33,26,16,7,35,31,21,30.47,30.37,9,2,9,0.00
2013-1-9,74,56,40,34,26,14,36,32,22,30.45,30.36,10,1,10,0.00
2013-1-10,69,57,48,30,23,14,36,27,17,30.53,30.42,15,2,15,0.00
2013-1-11,73,59,46,41,29,15,36,32,26,30.46,30.18,10,2,10,0.19
2013-1-12,80,65,55,42,35,29,37,33,23,30.21,30.11,6,1,6,0.01
2013-1-13,78,62,51,39,32,25,37,32,22,30.20,30.11,8,1,8,0.01
2013-1-14,79,65,53,41,33,27,37,31,20,30.22,30.13,9,2,9,0.00
2013-1-15,74,63,57,40,34,30,37,34,26,30.22,30.09,11,3,11,0.00
2013-1-16,80,66,57,48,35,29,38,32,21,30.09,29.97,9,2,9,0.00
2013-1-17,75,60,42,43,31,15,37,33,25,30.02,29.78,21,4,21,0.71
2013-1-18,54,41,29,17,9,3,35,28,14,30.56,30.01,19,4,19,0.05
2013-1-19,63,42,28,19,10,3,35,28,16,30.54,30.23,8,2,8,0.00
2013-1-20,68,49,36,25,14,8,36,27,10,30.23,30.02,12,2,12,0.00
2013-1-21,66,48,31,19,13,7,35,26,14,30.11,29.91,11,2,11,0.00
2013-1-22,51,38,25,11,-1,-10,32,21,10,30.30,29.98,13,2,13,0.00
2013-1-23,45,31,21,-1,-9,-17,29,18,10,30.42,30.15,8,2,8,0.00
2013-1-24,47,36,24,13,-2,-16,32,20,13,30.55,30.02,21,4,21,0.00
2013-1-25,36,29,17,8,-3,-14,35,26,15,30.56,30.15,11,2,11,0.17
2013-1-26,45,35,26,13,7,1,34,31,24,30.42,30.15,7,1,7,0.01
2013-1-27,41,36,25,8,4,1,35,27,21,30.61,30.41,18,6,18,0.00
2013-1-28,40,40,40,4,4,4,21,21,21,30.59,30.59,9,9,14,0.00
2013-1-29,72,43,40,45,6,4,38,22,21,30.59,29.84,9,8,14,0.03